createdAt,value
2018-04-27T00:00:08.826Z,9.85
2018-04-27T00:02:36.652Z,7.47
2018-04-27T00:05:04.551Z,8.02
2018-04-27T00:07:32.222Z,15.75
2018-04-27T00:09:59.756Z,13.13
2018-04-27T00:12:27.764Z,6.15
2018-04-27T00:14:55.305Z,8.70
2018-04-27T00:17:22.910Z,7.00
2018-04-27T00:19:50.852Z,12.15
2018-04-27T00:22:18.392Z,8.75
2018-04-27T00:24:45.977Z,5.25
2018-04-27T00:27:13.969Z,10.63
2018-04-27T00:29:41.494Z,7.47
2018-04-27T00:32:09.061Z,11.07
2018-04-27T00:34:36.857Z,11.55
2018-04-27T00:37:05.182Z,8.70
2018-04-27T00:39:32.736Z,6.55
2018-04-27T00:42:00.888Z,13.75
2018-04-27T00:44:28.538Z,11.88
2018-04-27T00:46:56.121Z,11.38
2018-04-27T00:49:24.028Z,10.40
2018-04-27T00:51:52.354Z,9.93
2018-04-27T00:54:19.912Z,11.45
2018-04-27T00:56:47.728Z,15.65
2018-04-27T00:59:15.284Z,11.45
2018-04-27T01:01:42.923Z,9.32
2018-04-27T01:04:10.944Z,13.73
2018-04-27T01:06:38.515Z,11.95
2018-04-27T01:09:06.074Z,13.15
2018-04-27T01:11:33.731Z,7.68
2018-04-27T01:14:01.286Z,13.77
2018-04-27T01:16:28.839Z,8.50
2018-04-27T01:18:57.435Z,7.65
2018-04-27T01:21:24.995Z,13.88
2018-04-27T01:23:52.642Z,11.00
2018-04-27T01:26:20.519Z,11.07
2018-04-27T01:28:48.103Z,6.85
2018-04-27T01:31:15.655Z,17.45
2018-04-27T01:33:43.646Z,10.88
2018-04-27T01:36:11.206Z,11.65
2018-04-27T01:38:38.729Z,16.10
2018-04-27T01:41:06.596Z,10.35
2018-04-27T01:43:34.213Z,13.80
2018-04-27T01:46:01.859Z,10.32
2018-04-27T01:48:29.472Z,12.20
2018-04-27T01:50:57.017Z,14.65
2018-04-27T01:53:24.567Z,11.48
2018-04-27T01:55:53.327Z,11.85
2018-04-27T01:58:20.853Z,13.60
2018-04-27T02:00:48.409Z,11.15
2018-04-27T02:03:16.308Z,14.75
2018-04-27T02:05:43.872Z,8.68
2018-04-27T02:08:11.456Z,10.25
2018-04-27T02:10:40.092Z,11.82
2018-04-27T02:13:07.620Z,15.18
2018-04-27T02:15:35.857Z,7.25
2018-04-27T02:18:03.647Z,9.60
2018-04-27T02:20:31.122Z,11.15
2018-04-27T02:22:59.342Z,12.93
2018-04-27T02:25:27.168Z,15.82
2018-04-27T02:27:54.685Z,11.20
2018-04-27T02:30:22.152Z,9.70
2018-04-27T02:32:50.091Z,14.60
2018-04-27T02:35:17.562Z,16.12
2018-04-27T02:37:45.062Z,13.43
2018-04-27T02:40:12.901Z,12.75
2018-04-27T02:42:40.378Z,13.82
2018-04-27T02:45:08.643Z,11.75
2018-04-27T02:47:36.934Z,10.90
2018-04-27T02:50:04.440Z,15.80
2018-04-27T02:52:31.959Z,14.50
2018-04-27T02:54:59.798Z,17.42
2018-04-27T02:57:27.290Z,9.55
2018-04-27T02:59:54.811Z,14.18
2018-04-27T03:02:22.693Z,14.73
2018-04-27T03:04:50.932Z,15.18
2018-04-27T03:07:18.482Z,15.30
2018-04-27T03:09:46.278Z,7.55
2018-04-27T03:12:13.795Z,11.98
2018-04-27T03:14:41.282Z,17.25
2018-04-27T03:17:09.033Z,13.95
2018-04-27T03:19:36.637Z,13.48
2018-04-27T03:22:04.858Z,12.73
2018-04-27T03:24:32.650Z,14.45
2018-04-27T03:27:00.135Z,19.95
2018-04-27T03:29:28.460Z,15.48
2018-04-27T03:31:56.247Z,15.00
2018-04-27T03:34:23.741Z,15.30
2018-04-27T03:36:51.206Z,13.40
2018-04-27T03:39:19.043Z,20.25
2018-04-27T03:41:47.285Z,19.80
2018-04-27T03:44:14.743Z,13.60
2018-04-27T03:46:42.530Z,22.87
2018-04-27T03:49:10.042Z,18.10
2018-04-27T03:51:37.510Z,15.85
2018-04-27T03:54:05.330Z,18.23
2018-04-27T03:56:32.820Z,15.13
2018-04-27T03:59:00.316Z,17.48
2018-04-27T04:01:40.058Z,21.50
2018-04-27T04:04:19.416Z,15.98
2018-04-27T04:06:47.989Z,16.20
2018-04-27T04:09:15.474Z,15.95
2018-04-27T04:11:42.966Z,20.30
2018-04-27T04:14:10.778Z,16.40
2018-04-27T04:16:39.002Z,18.27
2018-04-27T04:19:07.877Z,15.75
2018-04-27T04:21:37.303Z,14.15
2018-04-27T04:24:04.778Z,12.77
2018-04-27T04:26:32.242Z,16.40
2018-04-27T04:29:00.098Z,18.95
2018-04-27T04:31:27.569Z,19.25
2018-04-27T04:33:55.101Z,18.60
2018-04-27T04:36:23.001Z,16.70
2018-04-27T04:38:50.491Z,16.95
2018-04-27T04:41:17.977Z,17.33
2018-04-27T04:43:45.811Z,16.92
2018-04-27T04:46:13.301Z,16.58
2018-04-27T04:48:40.786Z,12.90
2018-04-27T04:51:08.664Z,18.25
2018-04-27T04:53:36.258Z,18.55
2018-04-27T04:56:03.734Z,12.85
2018-04-27T04:58:31.558Z,13.05
2018-04-27T05:00:59.014Z,15.32
2018-04-27T05:03:26.482Z,13.05
2018-04-27T05:05:54.248Z,17.42
2018-04-27T05:08:21.861Z,13.93
2018-04-27T05:10:49.306Z,11.90
2018-04-27T05:13:17.048Z,14.75
2018-04-27T05:15:44.531Z,13.25
2018-04-27T05:31:57.440Z,11.20
2018-04-27T05:34:24.920Z,12.90
2018-04-27T05:36:53.793Z,14.05
2018-04-27T05:39:21.627Z,13.27
2018-04-27T05:41:49.102Z,8.50
2018-04-27T05:44:16.580Z,8.32
2018-04-27T05:46:44.346Z,9.30
2018-04-27T05:49:12.663Z,14.60
2018-04-27T05:51:40.157Z,10.18
2018-04-27T05:54:07.955Z,9.40
2018-04-27T05:56:36.194Z,9.07
2018-04-27T05:59:03.689Z,11.20
2018-04-27T06:01:32.359Z,9.88
2018-04-27T06:04:11.903Z,12.02
2018-04-27T06:06:39.378Z,8.68
2018-04-27T06:09:06.864Z,11.45
2018-04-27T06:11:34.374Z,12.88
2018-04-27T06:14:02.435Z,11.27
2018-04-27T06:16:29.928Z,12.25
2018-04-27T06:18:57.545Z,7.20
2018-04-27T06:21:25.504Z,10.85
2018-04-27T06:23:52.980Z,12.73
2018-04-27T06:26:20.486Z,11.60
2018-04-27T06:28:50.161Z,11.60
2018-04-27T06:31:18.429Z,10.73
2018-04-27T06:33:46.697Z,12.63
2018-04-27T06:36:14.176Z,13.80
2018-04-27T06:38:41.755Z,10.63
2018-04-27T06:41:09.227Z,11.35
2018-04-27T06:43:36.715Z,9.05
2018-04-27T06:46:04.198Z,10.43
2018-04-27T06:48:31.687Z,11.32
2018-04-27T06:50:59.437Z,11.40
2018-04-27T06:53:26.956Z,7.32
2018-04-27T06:55:54.431Z,8.20
2018-04-27T06:58:22.197Z,12.48
2018-04-27T07:00:49.674Z,12.35
2018-04-27T07:03:17.192Z,10.40
2018-04-27T07:05:44.684Z,7.72
2018-04-27T07:08:13.137Z,7.87
2018-04-27T07:10:41.530Z,10.10
2018-04-27T07:13:10.046Z,11.90
2018-04-27T07:15:37.582Z,10.50
2018-04-27T07:18:05.888Z,10.23
2018-04-27T07:20:33.387Z,7.03
2018-04-27T07:23:00.946Z,10.90
2018-04-27T07:25:28.510Z,11.23
2018-04-27T07:27:56.008Z,12.27
2018-04-27T07:30:23.472Z,7.78
2018-04-27T07:32:51.014Z,12.00
2018-04-27T07:35:18.748Z,8.75
2018-04-27T07:37:46.239Z,6.75
2018-04-27T07:40:13.708Z,10.10
2018-04-27T07:42:41.446Z,9.60
2018-04-27T07:45:08.963Z,13.82
2018-04-27T07:47:36.450Z,13.48
2018-04-27T07:50:04.259Z,13.18
2018-04-27T07:52:31.762Z,12.55
2018-04-27T07:54:59.247Z,8.88
2018-04-27T07:57:26.747Z,13.25
2018-04-27T07:59:54.228Z,14.25
2018-04-27T08:02:21.800Z,10.85
2018-04-27T08:04:49.219Z,10.93
2018-04-27T08:07:16.770Z,11.77
2018-04-27T08:09:44.181Z,12.82
2018-04-27T08:12:11.989Z,14.05
2018-04-27T08:14:39.468Z,13.18
2018-04-27T08:17:06.948Z,11.40
2018-04-27T08:19:35.554Z,11.80
2018-04-27T08:22:03.062Z,12.23
2018-04-27T08:24:30.645Z,11.88
2018-04-27T08:26:58.101Z,16.10
2018-04-27T08:29:25.651Z,10.60
2018-04-27T08:31:53.934Z,10.60
2018-04-27T08:34:21.427Z,11.45
2018-04-27T08:36:48.926Z,11.10
2018-04-27T08:39:17.215Z,8.88
2018-04-27T08:41:45.056Z,13.52
2018-04-27T08:44:12.534Z,12.18
2018-04-27T08:46:40.035Z,10.55
2018-04-27T08:49:07.570Z,13.15
2018-04-27T08:51:35.055Z,14.43
2018-04-27T08:54:02.547Z,14.00
2018-04-27T08:56:30.167Z,14.20
2018-04-27T08:58:57.651Z,12.65
2018-04-27T09:01:25.182Z,11.35
2018-04-27T09:03:53.457Z,17.00
2018-04-27T09:06:20.992Z,11.63
2018-04-27T09:08:48.495Z,11.82
2018-04-27T09:11:16.015Z,11.43
2018-04-27T09:13:43.530Z,8.55
2018-04-27T09:16:11.049Z,8.98
2018-04-27T09:18:39.302Z,10.45
2018-04-27T09:21:07.546Z,9.93
2018-04-27T09:23:36.345Z,9.00
2018-04-27T09:26:03.854Z,10.63
2018-04-27T09:28:31.353Z,8.57
2018-04-27T09:30:59.107Z,7.43
2018-04-27T09:33:27.216Z,5.60
2018-04-27T09:35:55.513Z,13.85
2018-04-27T09:38:22.995Z,5.55
2018-04-27T09:40:50.502Z,6.82
2018-04-27T09:43:17.985Z,10.88
2018-04-27T09:45:46.227Z,7.82
2018-04-27T09:48:14.439Z,11.30
2018-04-27T09:50:42.062Z,9.90
2018-04-27T09:53:09.478Z,10.85
2018-04-27T09:55:36.966Z,8.52
2018-04-27T09:58:04.519Z,5.47
2018-04-27T10:00:32.024Z,7.15
2018-04-27T10:03:00.610Z,13.35
2018-04-27T10:05:28.119Z,10.52
2018-04-27T10:07:55.653Z,6.90
2018-04-27T10:10:23.147Z,10.35
2018-04-27T10:12:51.242Z,6.03
2018-04-27T10:15:18.730Z,8.27
2018-04-27T10:17:46.218Z,10.10
2018-04-27T10:20:13.699Z,6.70
2018-04-27T10:22:41.192Z,9.68
2018-04-27T10:25:08.704Z,7.22
2018-04-27T10:27:36.315Z,7.18
2018-04-27T10:30:03.903Z,11.93
2018-04-27T10:32:31.426Z,7.68
2018-04-27T10:34:59.013Z,6.05
2018-04-27T10:37:26.499Z,5.70
2018-04-27T10:39:54.034Z,7.87
2018-04-27T10:42:21.525Z,8.90
2018-04-27T10:44:49.035Z,4.90
2018-04-27T10:47:16.522Z,9.38
2018-04-27T10:49:43.998Z,4.27
2018-04-27T10:52:12.235Z,3.50
2018-04-27T10:54:40.113Z,5.33
2018-04-27T10:57:07.603Z,4.00
2018-04-27T10:59:35.082Z,4.10
2018-04-27T11:02:02.918Z,5.53
2018-04-27T11:04:30.402Z,3.83
2018-04-27T11:06:57.873Z,3.10
2018-04-27T11:09:25.678Z,4.33
2018-04-27T11:11:53.166Z,8.07
2018-04-27T11:14:20.747Z,5.17
2018-04-27T11:16:48.324Z,5.70
2018-04-27T11:19:15.762Z,5.53
2018-04-27T11:21:43.274Z,4.13
2018-04-27T11:24:10.883Z,7.10
2018-04-27T11:26:38.405Z,4.07
2018-04-27T11:29:06.665Z,4.97
2018-04-27T11:31:34.206Z,7.10
2018-04-27T11:34:01.699Z,3.60
2018-04-27T11:36:29.229Z,4.00
2018-04-27T11:38:57.510Z,5.93
2018-04-27T11:41:24.995Z,9.43
2018-04-27T11:43:53.263Z,5.50
2018-04-27T11:46:21.841Z,4.13
2018-04-27T11:48:50.107Z,7.33
2018-04-27T11:51:17.665Z,7.10
2018-04-27T11:53:45.212Z,7.80
2018-04-27T11:56:12.707Z,5.60
2018-04-27T11:58:40.962Z,12.50
2018-04-27T12:01:08.766Z,5.73
2018-04-27T12:03:36.266Z,5.00
2018-04-27T12:06:03.736Z,7.78
2018-04-27T12:08:31.228Z,5.95
2018-04-27T12:10:59.457Z,8.40
2018-04-27T12:13:26.996Z,9.50
2018-04-27T12:15:55.271Z,6.60
2018-04-27T12:18:22.774Z,11.48
2018-04-27T12:20:50.253Z,5.10
2018-04-27T12:23:17.742Z,7.05
2018-04-27T12:25:45.257Z,5.60
2018-04-27T12:28:12.810Z,7.40
2018-04-27T12:30:40.294Z,6.15
2018-04-27T12:33:07.817Z,8.23
2018-04-27T12:35:35.298Z,6.35
2018-04-27T12:38:02.819Z,8.93
2018-04-27T12:40:30.302Z,9.02
2018-04-27T12:42:57.858Z,11.07
2018-04-27T12:45:25.373Z,8.82
2018-04-27T12:47:52.865Z,7.95
2018-04-27T12:50:20.822Z,5.97
2018-04-27T12:52:49.092Z,8.27
2018-04-27T12:55:16.579Z,7.85
2018-04-27T12:57:44.827Z,7.57
2018-04-27T13:00:12.314Z,7.43
2018-04-27T13:02:40.562Z,7.15
2018-04-27T13:05:08.196Z,7.25
2018-04-27T13:07:35.730Z,10.10
2018-04-27T13:10:03.211Z,4.70
2018-04-27T13:12:30.699Z,7.80
2018-04-27T13:14:58.183Z,8.63
2018-04-27T13:17:25.663Z,8.60
2018-04-27T13:19:53.195Z,5.70
2018-04-27T13:22:21.443Z,6.80
2018-04-27T13:24:48.946Z,6.97
2018-04-27T13:27:16.447Z,3.10
2018-04-27T13:29:43.946Z,5.20
2018-04-27T13:32:12.179Z,4.80
2018-04-27T13:34:39.656Z,7.30
2018-04-27T13:37:07.188Z,7.00
2018-04-27T13:39:34.726Z,4.37
2018-04-27T13:42:02.234Z,5.47
2018-04-27T13:44:29.726Z,2.60
2018-04-27T13:46:57.198Z,2.80
2018-04-27T13:49:24.693Z,3.00
2018-04-27T13:51:53.004Z,4.30
2018-04-27T13:54:20.468Z,4.33
2018-04-27T13:56:47.968Z,5.23
2018-04-27T13:59:15.457Z,9.23
2018-04-27T14:01:43.834Z,4.00
2018-04-27T14:04:11.299Z,3.73
2018-04-27T14:06:38.772Z,4.47
2018-04-27T14:09:06.354Z,6.50
2018-04-27T14:11:33.851Z,3.00
2018-04-27T14:14:01.741Z,3.90
2018-04-27T14:16:29.142Z,3.70
2018-04-27T14:18:56.618Z,3.23
2018-04-27T14:21:24.455Z,4.37
2018-04-27T14:23:51.943Z,3.00
2018-04-27T14:26:19.506Z,4.07
2018-04-27T14:28:46.985Z,4.60
2018-04-27T14:31:14.454Z,3.13
2018-04-27T14:33:42.740Z,2.60
2018-04-27T14:36:10.986Z,4.37
2018-04-27T14:38:39.261Z,4.77
2018-04-27T14:41:07.528Z,3.33
2018-04-27T14:43:35.035Z,5.93
2018-04-27T14:46:02.522Z,2.47
2018-04-27T14:48:29.995Z,4.93
2018-04-27T14:50:57.478Z,4.00
2018-04-27T14:53:25.718Z,5.97
2018-04-27T14:55:53.206Z,2.40
2018-04-27T14:58:20.744Z,2.97
2018-04-27T15:00:48.223Z,4.10
2018-04-27T15:03:16.475Z,5.30
2018-04-27T15:05:44.053Z,4.93
2018-04-27T15:08:12.355Z,4.70
2018-04-27T15:10:39.854Z,4.70
2018-04-27T15:13:07.373Z,4.73
2018-04-27T15:15:34.859Z,6.53
2018-04-27T15:18:02.326Z,6.97
2018-04-27T15:20:29.815Z,5.43
2018-04-27T15:22:57.293Z,4.73
2018-04-27T15:25:24.794Z,3.57
2018-04-27T15:27:52.300Z,8.70
2018-04-27T15:30:19.799Z,3.87
2018-04-27T15:32:47.282Z,6.03
2018-04-27T15:35:14.785Z,4.30
2018-04-27T15:37:42.267Z,2.53
2018-04-27T15:40:09.780Z,4.00
2018-04-27T15:42:38.060Z,11.57
2018-04-27T15:45:06.303Z,3.30
2018-04-27T15:47:33.864Z,5.03
2018-04-27T15:50:01.369Z,3.53
2018-04-27T15:52:28.877Z,4.27
2018-04-27T15:54:56.370Z,5.60
2018-04-27T15:57:24.302Z,3.87
2018-04-27T15:59:51.742Z,7.83
2018-04-27T16:02:19.207Z,6.23
2018-04-27T16:04:46.731Z,5.87
2018-04-27T16:07:14.307Z,6.40
2018-04-27T16:09:41.862Z,4.40
2018-04-27T16:12:09.475Z,5.27
2018-04-27T16:14:36.978Z,5.60
2018-04-27T16:17:04.454Z,4.77
2018-04-27T16:19:32.056Z,3.50
2018-04-27T16:22:00.318Z,4.50
2018-04-27T16:24:27.821Z,2.70
2018-04-27T16:26:55.399Z,4.15
2018-04-27T16:29:22.914Z,3.75
2018-04-27T16:31:50.428Z,5.83
2018-04-27T16:34:17.937Z,5.53
2018-04-27T16:36:45.487Z,4.30
2018-04-27T16:39:12.985Z,4.40
2018-04-27T16:41:40.487Z,5.10
2018-04-27T16:44:08.959Z,4.07
2018-04-27T16:46:36.723Z,4.62
2018-04-27T16:49:04.245Z,6.47
2018-04-27T16:51:31.746Z,5.35
2018-04-27T16:53:59.230Z,4.70
2018-04-27T16:56:26.743Z,2.95
2018-04-27T16:58:54.265Z,5.62
2018-04-27T17:01:21.786Z,5.70
2018-04-27T17:03:49.342Z,4.05
2018-04-27T17:06:17.582Z,4.87
2018-04-27T17:08:45.111Z,2.97
2018-04-27T17:11:12.620Z,5.18
2018-04-27T17:13:40.887Z,4.60
2018-04-27T17:16:08.367Z,4.55
2018-04-27T17:18:35.851Z,5.05
2018-04-27T17:21:03.338Z,4.40
2018-04-27T17:23:30.891Z,2.72
2018-04-27T17:25:58.467Z,4.75
2018-04-27T17:28:25.976Z,5.87
2018-04-27T17:30:53.503Z,2.47
2018-04-27T17:33:21.012Z,3.30
2018-04-27T17:35:48.503Z,5.07
2018-04-27T17:38:16.012Z,4.28
2018-04-27T17:40:43.502Z,3.60
2018-04-27T17:43:11.017Z,4.93
2018-04-27T17:45:38.563Z,4.78
2018-04-27T17:48:06.041Z,6.45
2018-04-27T17:50:34.307Z,3.87
2018-04-27T17:53:01.812Z,4.20
2018-04-27T17:55:29.297Z,5.62
2018-04-27T17:57:56.823Z,5.72
2018-04-27T18:00:24.296Z,4.50
2018-04-27T18:02:52.676Z,3.70
2018-04-27T18:05:20.174Z,4.87
2018-04-27T18:07:47.686Z,5.03
2018-04-27T18:10:15.443Z,4.78
2018-04-27T18:12:42.934Z,5.78
2018-04-27T18:15:11.242Z,5.93
2018-04-27T18:17:38.759Z,6.97
2018-04-27T18:20:06.251Z,6.87
2018-04-27T18:22:33.762Z,5.40
2018-04-27T18:25:01.357Z,5.75
2018-04-27T18:27:29.596Z,7.78
2018-04-27T18:29:57.094Z,4.20
2018-04-27T18:32:24.897Z,5.00
2018-04-27T18:34:52.406Z,8.43
2018-04-27T18:37:20.706Z,6.35
2018-04-27T18:39:48.196Z,5.10
2018-04-27T18:42:15.717Z,6.32
2018-04-27T18:44:43.202Z,5.37
2018-04-27T18:47:10.718Z,6.75
2018-04-27T18:49:38.290Z,5.72
2018-04-27T18:52:05.821Z,10.35
2018-04-27T18:54:33.594Z,5.80
2018-04-27T18:57:01.851Z,7.00
2018-04-27T18:59:29.333Z,5.72
2018-04-27T19:01:57.887Z,4.32
2018-04-27T19:04:25.375Z,5.65
2018-04-27T19:06:52.950Z,6.28
2018-04-27T19:09:20.450Z,6.10
2018-04-27T19:11:47.936Z,6.40
2018-04-27T19:14:15.496Z,5.78
2018-04-27T19:16:43.819Z,3.95
2018-04-27T19:19:11.288Z,8.85
2018-04-27T19:21:38.809Z,10.98
2018-04-27T19:24:06.453Z,8.30
2018-04-27T19:26:33.951Z,5.53
2018-04-27T19:29:01.466Z,5.00
2018-04-27T19:31:29.027Z,4.12
2018-04-27T19:33:57.278Z,7.78
2018-04-27T19:36:24.747Z,6.12
2018-04-27T19:38:53.023Z,6.37
2018-04-27T19:41:20.493Z,5.28
2018-04-27T19:43:48.765Z,5.25
2018-04-27T19:46:17.058Z,9.18
2018-04-27T19:48:44.547Z,8.13
2018-04-27T19:51:12.069Z,4.95
2018-04-27T19:53:40.558Z,5.85
2018-04-27T19:56:08.067Z,5.62
2018-04-27T19:58:35.556Z,6.75
2018-04-27T20:01:04.094Z,6.72
2018-04-27T20:03:31.732Z,6.30
2018-04-27T20:05:59.260Z,9.88
2018-04-27T20:08:27.696Z,7.93
2018-04-27T20:10:55.983Z,7.45
2018-04-27T20:13:23.472Z,9.93
2018-04-27T20:15:55.983Z,8.20
2018-04-27T20:18:28.999Z,7.75
2018-04-27T20:20:59.341Z,10.52
2018-04-27T20:23:45.344Z,6.85
2018-04-27T20:26:13.234Z,9.50
2018-04-27T20:28:40.726Z,9.93
2018-04-27T20:31:08.223Z,7.60
2018-04-27T20:33:36.124Z,12.40
2018-04-27T20:36:03.518Z,5.90
2018-04-27T20:38:31.806Z,6.30
2018-04-27T20:41:15.165Z,9.80
2018-04-27T20:43:43.322Z,6.97
2018-04-27T20:46:10.816Z,5.93
2018-04-27T20:48:38.290Z,9.05
2018-04-27T20:51:08.381Z,8.30
2018-04-27T20:53:42.534Z,8.65
2018-04-27T20:56:10.193Z,6.80
2018-04-27T20:58:37.872Z,6.12
2018-04-27T21:01:05.725Z,9.05
2018-04-27T21:03:33.222Z,8.48
2018-04-27T21:06:01.462Z,10.55
2018-04-27T21:08:29.225Z,8.73
2018-04-27T21:10:56.710Z,10.60
2018-04-27T21:13:24.953Z,7.43
2018-04-27T21:15:52.442Z,7.87
2018-04-27T21:18:20.700Z,7.70
2018-04-27T21:20:48.189Z,11.40
2018-04-27T21:23:15.709Z,8.35
2018-04-27T21:25:44.789Z,10.20
2018-04-27T21:28:31.079Z,6.87
2018-04-27T21:30:58.558Z,9.77
2018-04-27T21:33:30.421Z,8.85
2018-04-27T21:35:58.163Z,9.18
2018-04-27T21:38:31.483Z,8.45
2018-04-27T21:40:59.753Z,8.02
2018-04-27T21:43:27.313Z,8.48
2018-04-27T21:45:54.797Z,9.38
2018-04-27T21:48:25.072Z,9.40
2018-04-27T21:50:52.550Z,13.98
2018-04-27T21:53:20.028Z,11.02
2018-04-27T21:55:47.509Z,9.75
2018-04-27T21:58:29.849Z,8.02
2018-04-27T22:00:57.645Z,10.32
2018-04-27T22:03:25.195Z,10.48
2018-04-27T22:06:03.739Z,15.32
2018-04-27T22:08:38.683Z,9.57
2018-04-27T22:11:07.909Z,8.90
2018-04-27T22:13:35.385Z,12.85
2018-04-27T22:16:02.980Z,13.52
2018-04-27T22:18:31.308Z,9.40
2018-04-27T22:20:58.777Z,9.55
2018-04-27T22:23:27.039Z,14.18
2018-04-27T22:25:54.856Z,14.25
2018-04-27T22:28:35.917Z,14.75
2018-04-27T22:31:03.655Z,10.35
2018-04-27T22:33:39.585Z,13.95
2018-04-27T22:36:21.702Z,14.27
2018-04-27T22:38:55.727Z,10.77
2018-04-27T22:41:23.529Z,9.68
2018-04-27T22:43:52.546Z,9.48
2018-04-27T22:46:20.034Z,10.13
2018-04-27T22:48:53.643Z,9.10
2018-04-27T22:51:34.592Z,10.27
2018-04-27T22:54:04.949Z,12.70
2018-04-27T23:10:00.134Z,11.10
2018-04-27T23:12:30.178Z,9.45
2018-04-27T23:14:58.415Z,12.37
2018-04-27T23:17:26.294Z,9.25
2018-04-27T23:19:55.426Z,9.35
2018-04-27T23:22:34.866Z,12.63
2018-04-27T23:25:05.638Z,15.20
2018-04-27T23:27:33.813Z,10.65
2018-04-27T23:30:01.279Z,10.63
2018-04-27T23:32:28.754Z,11.40
2018-04-27T23:34:56.256Z,12.23
2018-04-27T23:37:23.752Z,11.23
2018-04-27T23:39:51.225Z,9.02
2018-04-27T23:42:19.520Z,12.18
2018-04-27T23:44:47.047Z,17.05
2018-04-27T23:47:14.540Z,11.23
2018-04-27T23:49:42.522Z,11.40
2018-04-27T23:52:09.987Z,14.87
2018-04-27T23:54:37.471Z,9.02
2018-04-27T23:57:05.398Z,11.57
2018-04-27T23:59:35.709Z,12.68
